createdAt,value
2023-04-30T00:01:27.967Z,96.60
2023-04-30T00:03:55.075Z,96.70
2023-04-30T00:06:22.163Z,96.90
2023-04-30T00:08:49.246Z,96.90
2023-04-30T00:11:16.269Z,97.00
2023-04-30T00:13:43.621Z,97.30
2023-04-30T00:16:11.339Z,97.30
2023-04-30T00:18:39.281Z,97.30
2023-04-30T00:21:06.364Z,97.40
2023-04-30T00:23:33.381Z,97.50
2023-04-30T00:26:00.371Z,97.20
2023-04-30T00:28:27.602Z,97.10
2023-04-30T00:30:54.921Z,97.40
2023-04-30T00:33:22.014Z,97.50
2023-04-30T00:35:49.225Z,97.60
2023-04-30T00:38:16.291Z,97.70
2023-04-30T00:40:44.308Z,97.90
2023-04-30T00:44:15.076Z,98.00
2023-04-30T00:46:42.294Z,98.00
2023-04-30T00:49:09.635Z,97.90
2023-04-30T00:51:39.483Z,97.80
2023-04-30T00:54:08.560Z,98.00
2023-04-30T00:56:36.136Z,98.00
2023-04-30T00:59:03.154Z,97.70
2023-04-30T01:01:30.241Z,97.30
2023-04-30T01:03:57.767Z,96.50
2023-04-30T01:06:26.935Z,96.30
2023-04-30T01:08:54.548Z,96.70
2023-04-30T01:11:33.470Z,97.10
2023-04-30T01:14:42.803Z,97.40
2023-04-30T01:17:21.896Z,97.70
2023-04-30T01:19:49.142Z,98.10
2023-04-30T01:22:28.349Z,98.50
2023-04-30T01:25:14.513Z,98.80
2023-04-30T01:28:07.189Z,98.80
2023-04-30T01:30:36.039Z,98.80
2023-04-30T01:37:24.779Z,99.40
2023-04-30T01:40:12.921Z,99.80
2023-04-30T01:43:05.084Z,100.00
2023-04-30T01:45:46.129Z,100.00
2023-04-30T01:48:43.804Z,100.00
2023-04-30T01:51:30.840Z,100.00
2023-04-30T01:54:03.673Z,100.00
2023-04-30T01:56:44.340Z,100.00
2023-04-30T01:59:13.937Z,100.00
2023-04-30T02:01:41.917Z,100.00
2023-04-30T02:04:08.910Z,100.00
2023-04-30T02:06:36.159Z,100.00
2023-04-30T02:09:05.545Z,100.00
2023-04-30T02:11:32.904Z,100.00
2023-04-30T02:13:59.994Z,100.00
2023-04-30T02:16:27.131Z,100.00
2023-04-30T02:18:54.431Z,100.00
2023-04-30T02:21:21.408Z,100.00
2023-04-30T02:23:48.723Z,100.00
2023-04-30T02:26:16.080Z,100.00
2023-04-30T02:28:43.070Z,100.00
2023-04-30T02:31:11.178Z,100.00
2023-04-30T02:33:38.231Z,100.00
2023-04-30T02:36:05.808Z,100.00
2023-04-30T02:38:32.816Z,100.00
2023-04-30T02:40:59.760Z,100.00
2023-04-30T02:43:26.688Z,100.00
2023-04-30T02:45:53.661Z,100.00
2023-04-30T02:48:20.941Z,100.00
2023-04-30T02:50:47.898Z,100.00
2023-04-30T02:53:14.894Z,100.00
2023-04-30T02:55:41.925Z,100.00
2023-04-30T02:58:09.515Z,100.00
2023-04-30T03:00:36.520Z,100.00
2023-04-30T03:03:03.979Z,100.00
2023-04-30T03:05:31.088Z,100.00
2023-04-30T03:08:50.529Z,100.00
2023-04-30T03:11:17.509Z,100.00
2023-04-30T03:13:44.493Z,99.70
2023-04-30T03:16:11.619Z,99.70
2023-04-30T03:18:38.669Z,100.00
2023-04-30T03:21:05.873Z,100.00
2023-04-30T03:23:32.966Z,100.00
2023-04-30T03:26:00.292Z,100.00
2023-04-30T03:28:27.330Z,100.00
2023-04-30T03:30:54.290Z,100.00
2023-04-30T03:33:21.496Z,100.00
2023-04-30T03:35:50.457Z,100.00
2023-04-30T03:38:17.642Z,100.00
2023-04-30T03:40:45.029Z,100.00
2023-04-30T03:43:12.561Z,100.00
2023-04-30T03:45:39.601Z,100.00
2023-04-30T03:48:06.655Z,100.00
2023-04-30T03:50:33.866Z,100.00
2023-04-30T03:53:01.079Z,100.00
2023-04-30T03:55:28.330Z,100.00
2023-04-30T03:57:55.493Z,100.00
2023-04-30T04:00:23.201Z,100.00
2023-04-30T04:02:53.308Z,100.00
2023-04-30T04:05:21.260Z,100.00
2023-04-30T04:07:49.023Z,100.00
2023-04-30T04:10:16.297Z,100.00
2023-04-30T04:12:44.201Z,100.00
2023-04-30T04:15:11.773Z,100.00
2023-04-30T04:17:39.136Z,100.00
2023-04-30T04:20:07.774Z,100.00
2023-04-30T04:22:36.150Z,100.00
2023-04-30T04:25:03.179Z,100.00
2023-04-30T04:27:32.987Z,100.00
2023-04-30T04:29:59.962Z,100.00
2023-04-30T04:32:27.500Z,100.00
2023-04-30T04:34:55.292Z,100.00
2023-04-30T04:37:22.380Z,100.00
2023-04-30T04:39:49.567Z,100.00
2023-04-30T04:42:20.603Z,100.00
2023-04-30T04:44:47.991Z,100.00
2023-04-30T04:47:19.876Z,100.00
2023-04-30T04:49:47.414Z,100.00
2023-04-30T04:52:14.391Z,100.00
2023-04-30T04:54:41.389Z,100.00
2023-04-30T04:57:08.348Z,100.00
2023-04-30T04:59:35.363Z,100.00
2023-04-30T05:02:02.492Z,100.00
2023-04-30T05:04:30.527Z,100.00
2023-04-30T05:07:00.710Z,100.00
2023-04-30T05:09:27.753Z,100.00
2023-04-30T05:11:54.718Z,100.00
2023-04-30T05:14:21.716Z,100.00
2023-04-30T05:16:49.346Z,100.00
2023-04-30T05:19:16.516Z,100.00
2023-04-30T05:21:43.488Z,100.00
2023-04-30T05:24:10.437Z,100.00
2023-04-30T05:26:37.446Z,100.00
2023-04-30T05:29:04.402Z,100.00
2023-04-30T05:31:32.482Z,100.00
2023-04-30T05:33:59.542Z,100.00
2023-04-30T05:36:26.529Z,100.00
2023-04-30T05:38:53.592Z,100.00
2023-04-30T05:41:21.548Z,100.00
2023-04-30T05:43:48.497Z,100.00
2023-04-30T05:46:15.686Z,100.00
2023-04-30T05:48:42.765Z,100.00
2023-04-30T05:51:10.846Z,100.00
2023-04-30T05:53:37.980Z,100.00
2023-04-30T05:56:05.070Z,100.00
2023-04-30T05:58:32.898Z,100.00
2023-04-30T06:00:59.854Z,100.00
2023-04-30T06:03:26.898Z,100.00
2023-04-30T06:05:54.616Z,100.00
2023-04-30T06:08:21.665Z,100.00
2023-04-30T06:10:49.009Z,100.00
2023-04-30T06:13:16.672Z,99.60
2023-04-30T06:15:43.728Z,99.30
2023-04-30T06:18:12.618Z,99.00
2023-04-30T06:20:39.666Z,98.70
2023-04-30T06:23:06.862Z,98.30
2023-04-30T06:25:33.876Z,97.70
2023-04-30T06:28:01.735Z,98.10
2023-04-30T06:30:30.495Z,97.70
2023-04-30T06:33:00.777Z,96.70
2023-04-30T06:35:27.754Z,96.30
2023-04-30T06:37:54.746Z,95.30
2023-04-30T06:40:21.762Z,94.40
2023-04-30T06:42:48.816Z,94.60
2023-04-30T06:45:15.813Z,94.80
2023-04-30T06:47:43.109Z,94.30
2023-04-30T06:50:10.487Z,94.10
2023-04-30T06:52:37.462Z,93.60
2023-04-30T06:55:04.630Z,92.80
2023-04-30T06:57:32.016Z,93.10
2023-04-30T06:59:58.977Z,93.30
2023-04-30T07:02:26.130Z,92.00
2023-04-30T07:04:53.258Z,91.60
2023-04-30T07:07:20.224Z,91.20
2023-04-30T07:09:48.038Z,91.00
2023-04-30T07:12:16.074Z,90.60
2023-04-30T07:14:44.591Z,90.60
2023-04-30T07:17:11.674Z,89.70
2023-04-30T07:19:38.655Z,89.80
2023-04-30T07:22:05.649Z,89.40
2023-04-30T07:24:32.639Z,88.70
2023-04-30T07:27:02.997Z,87.90
2023-04-30T07:29:30.735Z,88.10
2023-04-30T07:31:58.518Z,87.30
2023-04-30T07:34:31.857Z,86.30
2023-04-30T07:36:58.799Z,85.70
2023-04-30T07:39:26.018Z,85.70
2023-04-30T07:42:50.730Z,85.80
2023-04-30T07:45:18.705Z,84.90
2023-04-30T07:47:47.999Z,83.30
2023-04-30T07:50:17.316Z,82.50
2023-04-30T07:52:44.391Z,83.20
2023-04-30T07:55:13.951Z,84.30
2023-04-30T07:57:41.475Z,82.40
2023-04-30T08:00:09.009Z,82.10
2023-04-30T08:02:39.527Z,82.50
2023-04-30T08:05:07.242Z,82.10
2023-04-30T08:07:34.299Z,80.00
2023-04-30T08:10:01.374Z,79.80
2023-04-30T08:12:28.446Z,77.60
2023-04-30T08:15:05.534Z,77.60
2023-04-30T08:17:33.387Z,77.60
2023-04-30T08:20:01.428Z,74.60
2023-04-30T08:22:28.555Z,74.20
2023-04-30T08:24:55.974Z,73.80
2023-04-30T08:27:23.733Z,73.60
2023-04-30T08:29:52.116Z,72.70
2023-04-30T08:32:22.534Z,73.20
2023-04-30T08:34:49.518Z,71.50
2023-04-30T08:37:16.561Z,70.50
2023-04-30T08:39:44.621Z,69.70
2023-04-30T08:42:44.295Z,67.00
2023-04-30T08:45:16.402Z,68.50
2023-04-30T08:47:45.139Z,66.50
2023-04-30T08:50:12.599Z,69.30
2023-04-30T08:53:01.193Z,67.10
2023-04-30T08:55:28.453Z,68.70
2023-04-30T08:57:55.482Z,66.30
2023-04-30T09:00:22.599Z,68.40
2023-04-30T09:02:50.398Z,68.40
2023-04-30T09:05:17.552Z,68.80
2023-04-30T09:10:22.868Z,69.30
2023-04-30T09:13:19.445Z,69.10
2023-04-30T09:15:52.389Z,69.50
2023-04-30T09:18:21.218Z,69.60
2023-04-30T09:20:59.431Z,68.60
2023-04-30T09:23:26.644Z,69.80
2023-04-30T09:25:53.789Z,69.00
2023-04-30T09:28:25.604Z,69.10
2023-04-30T09:30:53.359Z,68.70
2023-04-30T09:33:20.667Z,67.90
2023-04-30T09:35:47.941Z,66.40
2023-04-30T09:38:31.449Z,66.40
2023-04-30T09:44:54.409Z,66.00
2023-04-30T09:47:21.568Z,66.50
2023-04-30T09:49:52.451Z,65.50
2023-04-30T09:52:21.601Z,63.60
2023-04-30T09:54:49.628Z,65.30
2023-04-30T09:57:17.540Z,63.60
2023-04-30T09:59:46.788Z,64.00
2023-04-30T10:02:20.242Z,63.70
2023-04-30T10:04:55.856Z,63.60
2023-04-30T10:07:26.393Z,64.20
2023-04-30T10:09:59.494Z,63.60
2023-04-30T10:12:56.885Z,63.60
2023-04-30T10:15:30.510Z,63.50
2023-04-30T10:18:07.306Z,63.30
2023-04-30T10:20:37.253Z,62.30
2023-04-30T10:23:04.784Z,61.40
2023-04-30T10:25:32.943Z,61.40
2023-04-30T10:28:00.861Z,61.50
2023-04-30T10:30:29.122Z,62.20
2023-04-30T10:33:00.885Z,61.00
2023-04-30T10:35:33.242Z,62.00
2023-04-30T10:38:33.266Z,64.40
2023-04-30T10:41:04.026Z,61.90
2023-04-30T10:43:31.715Z,63.10
2023-04-30T10:46:01.273Z,62.10
2023-04-30T10:48:35.582Z,62.90
2023-04-30T10:51:02.611Z,62.10
2023-04-30T10:53:32.804Z,63.30
2023-04-30T10:56:09.150Z,62.20
2023-04-30T10:58:38.957Z,60.20
2023-04-30T11:01:12.785Z,59.60
2023-04-30T11:04:04.042Z,60.60
2023-04-30T11:06:52.485Z,61.60
2023-04-30T11:09:19.855Z,61.10
2023-04-30T11:11:47.650Z,61.10
2023-04-30T11:14:21.000Z,61.50
2023-04-30T11:16:54.013Z,62.50
2023-04-30T11:19:23.256Z,61.70
2023-04-30T11:22:05.509Z,60.70
2023-04-30T11:25:01.187Z,59.90
2023-04-30T11:27:30.364Z,59.00
2023-04-30T11:29:59.303Z,59.40
2023-04-30T11:32:34.423Z,58.80
2023-04-30T11:35:04.392Z,58.60
2023-04-30T11:37:32.693Z,58.70
2023-04-30T11:40:05.987Z,58.80
2023-04-30T11:42:34.898Z,59.10
2023-04-30T11:45:05.182Z,58.50
2023-04-30T11:47:44.035Z,60.40
2023-04-30T11:50:42.822Z,60.10
2023-04-30T11:53:10.360Z,60.00
2023-04-30T11:55:37.349Z,59.80
2023-04-30T11:58:04.344Z,59.70
2023-04-30T12:00:32.003Z,59.70
2023-04-30T12:03:03.804Z,59.40
2023-04-30T12:05:31.157Z,58.20
2023-04-30T12:08:04.885Z,58.90
2023-04-30T12:10:32.440Z,58.40
2023-04-30T12:12:59.831Z,58.00
2023-04-30T12:15:27.644Z,58.40
2023-04-30T12:17:59.309Z,59.10
2023-04-30T12:20:29.283Z,58.10
2023-04-30T12:22:56.425Z,58.40
2023-04-30T12:25:23.708Z,57.20
2023-04-30T12:27:52.839Z,58.00
2023-04-30T12:30:21.801Z,57.30
2023-04-30T12:37:22.782Z,56.80
2023-04-30T12:39:49.846Z,56.50
2023-04-30T12:42:20.235Z,54.80
2023-04-30T12:44:47.806Z,54.80
2023-04-30T12:47:16.568Z,54.50
2023-04-30T12:49:46.959Z,53.00
2023-04-30T12:52:15.560Z,54.30
2023-04-30T12:54:43.502Z,54.50
2023-04-30T12:57:12.752Z,53.70
2023-04-30T12:59:55.495Z,53.90
2023-04-30T13:02:32.186Z,53.30
2023-04-30T13:04:59.786Z,52.30
2023-04-30T13:07:27.270Z,52.60
2023-04-30T13:09:54.540Z,52.80
2023-04-30T13:12:21.755Z,54.10
2023-04-30T13:14:48.626Z,51.80
2023-04-30T13:17:15.651Z,51.80
2023-04-30T13:19:42.612Z,52.80
2023-04-30T13:22:09.652Z,52.50
2023-04-30T13:24:37.038Z,54.50
2023-04-30T13:27:04.353Z,51.60
2023-04-30T13:29:31.971Z,51.00
2023-04-30T13:31:59.388Z,51.90
2023-04-30T13:34:26.456Z,51.80
2023-04-30T13:36:53.658Z,53.10
2023-04-30T13:39:21.956Z,52.90
2023-04-30T13:41:54.163Z,53.40
2023-04-30T13:44:21.148Z,53.50
2023-04-30T13:46:48.159Z,52.30
2023-04-30T13:49:15.339Z,51.70
2023-04-30T13:51:42.411Z,51.20
2023-04-30T13:54:11.400Z,50.90
2023-04-30T13:56:38.509Z,51.10
2023-04-30T13:59:05.575Z,51.00
2023-04-30T14:01:33.657Z,50.90
2023-04-30T14:04:00.842Z,50.40
2023-04-30T14:06:30.072Z,50.80
2023-04-30T14:08:57.678Z,52.10
2023-04-30T14:11:25.105Z,50.50
2023-04-30T14:13:52.676Z,50.50
2023-04-30T14:16:20.991Z,49.90
2023-04-30T14:18:48.372Z,48.80
2023-04-30T14:21:15.539Z,49.80
2023-04-30T14:23:42.686Z,49.50
2023-04-30T14:26:09.956Z,50.40
2023-04-30T14:28:36.965Z,50.20
2023-04-30T14:31:04.012Z,49.70
2023-04-30T14:33:32.177Z,49.70
2023-04-30T14:36:02.173Z,49.60
2023-04-30T14:38:29.169Z,49.50
2023-04-30T14:40:56.112Z,49.40
2023-04-30T14:43:23.797Z,50.20
2023-04-30T14:45:51.824Z,50.00
2023-04-30T14:48:18.989Z,49.70
2023-04-30T14:50:46.077Z,50.40
2023-04-30T14:53:13.354Z,50.80
2023-04-30T14:55:40.395Z,50.70
2023-04-30T14:58:07.498Z,51.50
2023-04-30T15:00:34.476Z,50.20
2023-04-30T15:03:01.574Z,50.80
2023-04-30T15:05:29.414Z,50.60
2023-04-30T15:07:56.465Z,50.90
2023-04-30T15:10:23.449Z,50.30
2023-04-30T15:12:50.455Z,50.50
2023-04-30T15:15:18.919Z,50.90
2023-04-30T15:17:46.217Z,50.70
2023-04-30T15:20:13.314Z,52.20
2023-04-30T15:22:40.866Z,52.40
2023-04-30T15:25:08.919Z,53.00
2023-04-30T15:27:36.913Z,51.20
2023-04-30T15:30:04.330Z,51.20
2023-04-30T15:32:31.480Z,50.70
2023-04-30T15:34:58.501Z,51.00
2023-04-30T15:37:25.684Z,51.40
2023-04-30T15:39:53.050Z,50.90
2023-04-30T15:42:20.341Z,50.20
2023-04-30T15:44:47.333Z,50.20
2023-04-30T15:47:14.320Z,50.10
2023-04-30T15:49:41.310Z,50.80
2023-04-30T15:52:08.358Z,49.30
2023-04-30T15:54:35.424Z,50.40
2023-04-30T15:57:04.193Z,50.70
2023-04-30T15:59:31.590Z,50.90
2023-04-30T16:01:58.729Z,51.00
2023-04-30T16:04:25.954Z,51.60
2023-04-30T16:06:53.695Z,52.00
2023-04-30T16:09:21.057Z,51.20
2023-04-30T16:11:48.498Z,50.90
2023-04-30T16:14:15.667Z,51.00
2023-04-30T16:16:42.936Z,51.70
2023-04-30T16:19:12.469Z,52.00
2023-04-30T16:21:39.782Z,51.80
2023-04-30T16:24:07.860Z,51.60
2023-04-30T16:26:35.429Z,51.40
2023-04-30T16:29:03.108Z,52.50
2023-04-30T16:31:30.938Z,53.20
2023-04-30T16:33:58.146Z,53.00
2023-04-30T16:36:25.500Z,53.90
2023-04-30T16:38:52.512Z,53.80
2023-04-30T16:41:20.778Z,54.30
2023-04-30T16:43:47.824Z,54.20
2023-04-30T16:46:14.875Z,54.60
2023-04-30T16:48:41.974Z,54.50
2023-04-30T16:51:09.706Z,54.80
2023-04-30T16:53:36.755Z,55.10
2023-04-30T16:56:03.945Z,54.80
2023-04-30T16:58:31.027Z,55.00
2023-04-30T17:00:58.239Z,56.00
2023-04-30T17:03:25.448Z,55.90
2023-04-30T17:06:17.997Z,55.90
2023-04-30T17:08:45.101Z,56.50
2023-04-30T17:11:12.631Z,56.00
2023-04-30T17:17:59.299Z,56.50
2023-04-30T17:20:28.500Z,57.20
2023-04-30T17:22:56.079Z,56.60
2023-04-30T17:25:23.183Z,57.30
2023-04-30T17:27:50.170Z,57.20
2023-04-30T17:30:17.606Z,56.90
2023-04-30T17:32:44.801Z,56.90
2023-04-30T17:35:12.100Z,56.50
2023-04-30T17:37:40.021Z,56.90
2023-04-30T17:40:07.789Z,56.60
2023-04-30T17:42:35.292Z,56.50
2023-04-30T17:45:06.373Z,56.90
2023-04-30T17:47:33.458Z,56.90
2023-04-30T17:50:00.649Z,57.70
2023-04-30T17:52:27.712Z,57.30
2023-04-30T17:54:55.141Z,58.00
2023-04-30T17:57:22.174Z,58.10
2023-04-30T17:59:49.288Z,58.80
2023-04-30T18:02:16.729Z,59.20
2023-04-30T18:04:45.074Z,59.40
2023-04-30T18:07:12.062Z,59.00
2023-04-30T18:09:39.056Z,59.20
2023-04-30T18:12:06.838Z,59.40
2023-04-30T18:14:34.301Z,60.10
2023-04-30T18:17:01.300Z,60.70
2023-04-30T18:19:28.341Z,59.90
2023-04-30T18:21:57.239Z,60.20
2023-04-30T18:24:28.060Z,60.50
2023-04-30T18:31:13.645Z,60.80
2023-04-30T18:33:40.750Z,61.50
2023-04-30T18:36:08.509Z,61.70
2023-04-30T18:38:35.592Z,62.70
2023-04-30T18:41:02.567Z,62.50
2023-04-30T18:43:29.588Z,63.10
2023-04-30T18:45:56.747Z,62.90
2023-04-30T18:48:23.857Z,63.60
2023-04-30T18:50:50.947Z,63.60
2023-04-30T18:53:18.769Z,64.20
2023-04-30T18:55:46.135Z,64.00
2023-04-30T18:58:44.317Z,64.50
2023-04-30T19:01:11.513Z,64.80
2023-04-30T19:03:39.655Z,64.80
2023-04-30T19:07:13.208Z,65.10
2023-04-30T19:09:40.519Z,65.10
2023-04-30T19:12:07.623Z,65.10
2023-04-30T19:14:34.715Z,64.90
2023-04-30T19:17:01.786Z,65.60
2023-04-30T19:19:28.881Z,66.00
2023-04-30T19:21:56.062Z,66.40
2023-04-30T19:24:24.157Z,66.60
2023-04-30T19:30:55.731Z,66.20
2023-04-30T19:33:24.005Z,66.50
2023-04-30T19:35:55.247Z,66.60
2023-04-30T19:38:22.699Z,66.40
2023-04-30T19:40:54.367Z,66.20
2023-04-30T19:43:24.849Z,66.30
2023-04-30T19:45:57.210Z,66.60
2023-04-30T19:48:26.198Z,66.40
2023-04-30T19:50:55.074Z,66.50
2023-04-30T19:53:22.638Z,66.50
2023-04-30T19:55:51.526Z,66.70
2023-04-30T19:58:54.959Z,67.10
2023-04-30T20:01:22.098Z,67.30
2023-04-30T20:03:49.362Z,67.20
2023-04-30T20:06:16.542Z,67.20
2023-04-30T20:08:43.623Z,67.60
2023-04-30T20:11:10.766Z,68.40
2023-04-30T20:13:37.815Z,69.20
2023-04-30T20:16:05.524Z,69.50
2023-04-30T20:18:33.780Z,69.90
2023-04-30T20:21:05.464Z,70.30
2023-04-30T20:27:45.128Z,70.30
2023-04-30T20:30:13.535Z,69.40
2023-04-30T20:32:41.308Z,69.80
2023-04-30T20:35:39.632Z,70.20
2023-04-30T20:38:08.366Z,70.40
2023-04-30T20:41:46.727Z,70.70
2023-04-30T20:44:40.014Z,70.50
2023-04-30T20:47:08.995Z,70.60
2023-04-30T20:53:37.332Z,70.40
2023-04-30T20:56:04.688Z,70.50
2023-04-30T20:58:31.989Z,71.00
2023-04-30T21:00:59.402Z,70.80
2023-04-30T21:03:27.140Z,71.20
2023-04-30T21:06:01.180Z,70.80
2023-04-30T21:08:28.584Z,71.00
2023-04-30T21:10:55.751Z,70.80
2023-04-30T21:13:22.781Z,70.50
2023-04-30T21:15:53.438Z,70.50
2023-04-30T21:18:20.901Z,70.80
2023-04-30T21:20:55.011Z,71.10
2023-04-30T21:23:22.362Z,71.60
2023-04-30T21:25:53.963Z,71.70
2023-04-30T21:28:21.088Z,71.00
2023-04-30T21:30:48.398Z,71.30
2023-04-30T21:37:17.397Z,72.20
2023-04-30T21:39:44.641Z,72.70
2023-04-30T21:42:11.704Z,72.80
2023-04-30T21:44:40.023Z,72.70
2023-04-30T21:47:10.650Z,72.70
2023-04-30T21:49:37.717Z,72.80
2023-04-30T21:52:08.259Z,72.90
2023-04-30T21:54:41.293Z,73.20
2023-04-30T21:57:08.621Z,73.40
2023-04-30T21:59:35.759Z,72.80
2023-04-30T22:02:20.216Z,73.10
2023-04-30T22:04:50.762Z,73.10
2023-04-30T22:07:17.842Z,73.20
2023-04-30T22:09:45.104Z,73.10
2023-04-30T22:12:13.238Z,73.50
2023-04-30T22:14:40.393Z,73.60
2023-04-30T22:17:07.459Z,74.30
2023-04-30T22:19:34.389Z,74.80
2023-04-30T22:22:01.460Z,75.30
2023-04-30T22:24:28.416Z,75.00
2023-04-30T22:26:55.813Z,74.70
2023-04-30T22:29:22.799Z,75.00
2023-04-30T22:31:49.912Z,75.00
2023-04-30T22:34:19.494Z,75.00
2023-04-30T22:36:46.511Z,75.20
2023-04-30T22:39:13.501Z,75.40
2023-04-30T22:41:56.024Z,75.50
2023-04-30T22:44:23.471Z,75.50
2023-04-30T22:46:50.531Z,75.60
2023-04-30T22:49:27.600Z,75.80
2023-04-30T22:51:58.234Z,76.00
2023-04-30T22:54:25.409Z,76.20
2023-04-30T22:56:52.479Z,76.00
2023-04-30T22:59:19.468Z,75.90
2023-04-30T23:01:46.476Z,75.90
2023-04-30T23:04:42.266Z,76.10
2023-04-30T23:07:09.437Z,76.50
2023-04-30T23:09:36.433Z,76.90
2023-04-30T23:12:04.927Z,77.10
2023-04-30T23:14:31.975Z,77.40
2023-04-30T23:16:59.064Z,77.30
2023-04-30T23:19:26.857Z,77.30
2023-04-30T23:21:54.292Z,77.40
2023-04-30T23:24:21.291Z,77.80
2023-04-30T23:26:48.354Z,78.60
2023-04-30T23:29:15.549Z,79.30
2023-04-30T23:31:42.601Z,79.50
2023-04-30T23:34:39.460Z,79.60
2023-04-30T23:37:06.806Z,79.50
2023-04-30T23:39:33.814Z,79.20
2023-04-30T23:42:00.905Z,79.30
2023-04-30T23:44:31.686Z,79.10
2023-04-30T23:47:01.025Z,79.10
2023-04-30T23:49:28.043Z,79.00
2023-04-30T23:51:55.043Z,79.00
2023-04-30T23:54:22.498Z,78.70
2023-04-30T23:56:49.933Z,78.70
2023-04-30T23:59:16.982Z,78.60
